Airfield :
LOGIN :

Register | Disclaimer

   EN    FR    IT 

 










Legend :    VFR   Marginal VFR   IFR   Intensive IFR   Very Intensive IFR
Visi :
Ceiling :
>= 8 km
>= 3000ft
5 to 8 km
1000 to 3000 ft
1500m to 5 km
500 to 1000 ft
800 to 1500m
200 to 500 ft
< 800m
< 200 ft
Symbols :   Thunderstorms  Fog  Heavy snow  Heavy precipitations  Wind > 20 kt
SIGMETs :     Misc.  Thunderstorms  Icing  Turbulence  Mountain Waves  Volcanic Ashes







- Airport Elevation : 29 ft
- IATA code : SVG


ENZV - Sola

CURRENT METAR :
  • 170450Z 34013KT 9999 FEW030 SCT075 02/M03 Q0990

EXPIRED METARs :
  • 170420Z 34011KT 9999 FEW040 SCT062 02/M03 Q0990
  • 170350Z 35013KT 9999 SCT039 BKN080 03/M03 Q0989
  • 170250Z 35013KT 9999 SCT060 02/M02 Q0989
  • 170220Z 35014KT 9999 FEW057 SCT074 02/M03 Q0989

TAF TAF ENZV
Valid from the 17 at 00:00 until the 18 at 00:00 UTC


1700/1724 36008KT 9999 FEW020TCU SCT080
PROB40
TEMPO 1700/1709 34015G25KT 1500 SHSNRA VV008
No reported NOTAMs for that airfield.



MET'MAP, your aeronautical weather chart ! - Copyright ORBIFLY December 2007 - Disclaimer

ORBIFLY MET'MAP TEAM :

Programming & Development : Alexandra Zaïnal
Concept & Development : Baudouin d'Aumeries
Co-Development & Prog : Marc-Olivier Méhu
Technical & hardware support : Manuel Goepfert

Contact : metmap@orbifly.com




SOURCES & CREDITS :

   NOAA